createdAt,value
2022-11-30T04:44:51.538Z,13.75
2022-11-30T09:20:50.045Z,12.18
2022-11-30T10:00:17.467Z,7.78
2022-11-30T10:03:07.746Z,7.80
2022-11-30T10:06:02.118Z,6.50
2022-11-30T10:09:10.453Z,6.63
2022-11-30T10:12:34.261Z,7.03
2022-11-30T10:15:19.992Z,6.63
2022-11-30T10:17:57.630Z,6.22
2022-11-30T10:20:33.387Z,6.35
2022-11-30T10:23:19.984Z,6.45
2022-11-30T10:26:05.987Z,6.55
2022-11-30T10:28:52.253Z,6.78
2022-11-30T10:31:29.093Z,7.43
2022-11-30T10:34:02.004Z,6.28
2022-11-30T10:36:44.714Z,6.68
2022-11-30T10:39:31.979Z,7.22
2022-11-30T10:42:14.682Z,7.45
2022-11-30T10:44:47.445Z,6.72
2022-11-30T10:47:24.920Z,5.60
2022-11-30T10:49:53.510Z,5.78
2022-11-30T10:52:35.028Z,5.53
2022-11-30T10:55:05.112Z,4.70
2022-11-30T10:57:34.148Z,5.85
2022-11-30T11:00:05.404Z,4.68
2022-11-30T11:02:47.941Z,5.28
2022-11-30T11:05:27.648Z,5.10
2022-11-30T11:08:06.953Z,5.20
2022-11-30T11:10:43.103Z,5.53
2022-11-30T11:13:44.960Z,5.20
2022-11-30T11:16:17.035Z,5.65
2022-11-30T11:18:56.274Z,4.95
2022-11-30T11:21:29.738Z,5.63
2022-11-30T11:30:10.821Z,3.97
2022-11-30T11:36:38.164Z,5.00
2022-11-30T11:39:31.489Z,5.50
2022-11-30T11:42:22.160Z,5.05
2022-11-30T11:44:57.317Z,4.75
2022-11-30T11:47:46.568Z,4.25
2022-11-30T11:51:06.123Z,4.20
2022-11-30T11:54:05.532Z,4.97
2022-11-30T11:56:56.231Z,4.45
2022-11-30T11:59:52.415Z,4.45
2022-11-30T12:02:52.936Z,4.70
2022-11-30T12:05:34.792Z,4.07
2022-11-30T12:08:27.942Z,4.32
2022-11-30T12:11:40.037Z,4.00
2022-11-30T12:14:18.060Z,4.65
2022-11-30T12:17:13.371Z,4.28
2022-11-30T12:20:03.149Z,4.45
2022-11-30T12:22:34.385Z,4.85
2022-11-30T12:25:24.895Z,5.13
2022-11-30T12:28:25.114Z,4.80
2022-11-30T12:31:22.778Z,4.50
2022-11-30T12:34:07.177Z,8.52
2022-11-30T12:36:44.018Z,9.10
2022-11-30T12:39:47.183Z,10.55
2022-11-30T12:42:22.962Z,9.27
2022-11-30T12:45:24.939Z,9.98
2022-11-30T12:48:21.994Z,9.75
2022-11-30T12:50:58.458Z,10.75
2022-11-30T12:53:41.114Z,9.93
2022-11-30T12:56:27.237Z,10.90
2022-11-30T12:59:16.334Z,10.88
2022-11-30T13:02:03.455Z,11.27
2022-11-30T13:04:46.687Z,10.90
2022-11-30T13:07:34.521Z,11.02
2022-11-30T13:10:37.413Z,11.82
2022-11-30T13:13:21.838Z,11.55
2022-11-30T13:15:49.883Z,12.38
2022-11-30T13:18:24.041Z,12.32
2022-11-30T13:21:21.811Z,12.02
2022-11-30T13:24:17.189Z,12.93
2022-11-30T13:27:21.833Z,12.35
2022-11-30T13:30:21.600Z,12.60
2022-11-30T13:32:59.033Z,13.30
2022-11-30T13:35:30.077Z,13.60
2022-11-30T13:38:35.102Z,12.98
2022-11-30T13:41:04.923Z,12.80
2022-11-30T13:43:48.351Z,12.35
2022-11-30T13:46:24.349Z,13.63
2022-11-30T13:49:43.219Z,12.70
2022-11-30T13:52:24.541Z,12.20
2022-11-30T13:54:58.331Z,11.75
2022-11-30T13:57:29.129Z,12.88
2022-11-30T14:00:01.076Z,12.98
2022-11-30T14:02:36.505Z,12.18
2022-11-30T14:05:19.042Z,12.02
2022-11-30T14:08:08.004Z,11.73
2022-11-30T14:10:36.803Z,11.27
2022-11-30T14:13:11.230Z,12.32
2022-11-30T14:15:38.736Z,12.73
2022-11-30T14:18:09.440Z,11.60
2022-11-30T14:20:42.873Z,12.45
2022-11-30T14:23:36.187Z,12.65
2022-11-30T14:26:46.548Z,12.43
2022-11-30T14:29:37.844Z,12.32
2022-11-30T14:32:13.571Z,12.50
2022-11-30T14:34:52.805Z,13.18
2022-11-30T14:37:36.043Z,12.43
2022-11-30T14:40:19.025Z,11.77
2022-11-30T14:43:05.370Z,12.20
2022-11-30T14:45:35.020Z,13.27
2022-11-30T14:48:11.462Z,13.45
2022-11-30T14:50:53.335Z,12.35
2022-11-30T14:53:45.335Z,12.75
2022-11-30T14:56:27.050Z,11.43
2022-11-30T14:59:32.511Z,11.90
2022-11-30T15:02:07.372Z,13.70
2022-11-30T15:04:37.316Z,12.05
2022-11-30T15:07:04.979Z,13.13
2022-11-30T15:09:43.582Z,13.80
2022-11-30T15:12:15.360Z,13.23
2022-11-30T15:15:03.977Z,12.55
2022-11-30T15:17:32.009Z,11.60
2022-11-30T15:19:59.689Z,12.65
2022-11-30T15:22:35.116Z,12.93
2022-11-30T15:25:02.784Z,13.63
2022-11-30T15:27:37.585Z,13.27
2022-11-30T15:30:05.984Z,14.07
2022-11-30T15:32:33.586Z,13.07
2022-11-30T15:35:04.987Z,13.68
2022-11-30T15:37:41.274Z,14.20
2022-11-30T15:40:12.843Z,14.40
2022-11-30T15:42:52.351Z,14.75
2022-11-30T15:45:25.744Z,14.13
2022-11-30T15:48:00.222Z,13.30
2022-11-30T15:50:43.510Z,13.45
2022-11-30T15:53:43.183Z,14.02
2022-11-30T15:59:34.463Z,14.40
2022-11-30T16:02:49.697Z,13.25
2022-11-30T16:09:35.409Z,12.68
2022-11-30T16:44:16.360Z,13.25
2022-11-30T16:50:07.489Z,11.50
2022-11-30T16:52:41.984Z,10.75
2022-11-30T17:02:33.139Z,9.98
2022-11-30T17:05:01.774Z,9.13
2022-11-30T17:07:31.893Z,9.30
2022-11-30T17:10:00.502Z,10.00
2022-11-30T17:12:45.888Z,9.70
2022-11-30T17:15:37.540Z,12.75
2022-11-30T17:19:04.311Z,11.95
2022-11-30T17:21:53.456Z,11.05
2022-11-30T17:24:38.668Z,10.88
2022-11-30T17:27:07.115Z,11.68
2022-11-30T17:29:35.693Z,11.70
2022-11-30T17:32:03.707Z,10.82
2022-11-30T17:37:46.426Z,10.48
2022-11-30T17:40:17.996Z,9.65
2022-11-30T17:42:48.486Z,10.48
2022-11-30T17:45:26.787Z,10.07
2022-11-30T17:47:56.004Z,9.48
2022-11-30T17:50:23.708Z,10.10
2022-11-30T17:52:53.355Z,10.00
2022-11-30T17:55:26.087Z,10.75
2022-11-30T17:57:56.877Z,10.13
2022-11-30T18:00:30.693Z,10.30
2022-11-30T18:03:05.112Z,11.00
2022-11-30T18:05:38.616Z,11.00
2022-11-30T18:08:06.592Z,11.60
2022-11-30T18:10:34.656Z,11.23
2022-11-30T18:13:34.395Z,10.70
2022-11-30T18:16:37.342Z,10.20
2022-11-30T18:19:16.820Z,10.80
2022-11-30T18:21:48.342Z,11.30
2022-11-30T18:24:25.002Z,10.15
2022-11-30T18:26:53.692Z,9.00
2022-11-30T18:29:25.127Z,10.13
2022-11-30T18:31:53.803Z,9.07
2022-11-30T18:34:24.128Z,10.27
2022-11-30T18:36:52.152Z,11.32
2022-11-30T18:39:20.457Z,10.63
2022-11-30T18:41:49.514Z,11.63
2022-11-30T18:44:17.500Z,10.75
2022-11-30T18:46:52.580Z,12.35
2022-11-30T18:49:28.004Z,11.30
2022-11-30T18:51:58.211Z,11.40
2022-11-30T18:54:26.275Z,11.75
2022-11-30T18:56:59.863Z,11.25
2022-11-30T18:59:32.421Z,12.10
2022-11-30T19:02:04.005Z,12.60
2022-11-30T19:04:32.996Z,12.55
2022-11-30T19:07:09.676Z,11.68
2022-11-30T19:09:37.720Z,10.93
2022-11-30T19:12:10.348Z,11.38
2022-11-30T19:14:39.289Z,9.88
2022-11-30T19:17:07.220Z,8.63
2022-11-30T19:19:35.278Z,11.57
2022-11-30T19:22:03.121Z,12.57
2022-11-30T19:24:31.158Z,12.00
2022-11-30T19:26:59.157Z,13.90
2022-11-30T19:29:27.443Z,12.75
2022-11-30T19:32:14.674Z,11.60
2022-11-30T19:34:46.564Z,10.93
2022-11-30T19:37:18.365Z,11.07
2022-11-30T19:39:52.767Z,10.57
2022-11-30T19:42:20.544Z,9.13
2022-11-30T19:44:48.421Z,10.93
2022-11-30T19:47:16.220Z,10.68
2022-11-30T19:49:44.071Z,11.45
2022-11-30T19:52:11.693Z,11.00
2022-11-30T19:54:39.290Z,11.52
2022-11-30T19:57:07.118Z,9.77
2022-11-30T19:59:35.051Z,10.95
2022-11-30T20:02:02.901Z,12.10
2022-11-30T20:04:31.147Z,11.73
2022-11-30T20:07:01.295Z,10.88
2022-11-30T20:09:29.033Z,11.05
2022-11-30T20:11:56.884Z,11.48
2022-11-30T20:14:24.715Z,10.27
2022-11-30T20:16:53.178Z,11.23
2022-11-30T20:19:20.933Z,10.93
2022-11-30T20:21:48.861Z,11.63
2022-11-30T20:24:16.583Z,10.20
2022-11-30T20:26:45.809Z,9.63
2022-11-30T20:29:20.665Z,14.25
2022-11-30T20:31:49.490Z,11.88
2022-11-30T20:34:17.664Z,14.38
2022-11-30T20:36:45.634Z,14.60
2022-11-30T20:39:14.086Z,14.77
2022-11-30T20:41:42.476Z,13.80
2022-11-30T20:44:16.477Z,15.02
2022-11-30T20:46:44.318Z,12.90
2022-11-30T20:49:18.245Z,14.35
2022-11-30T20:51:47.607Z,13.90
2022-11-30T20:54:16.548Z,12.43
2022-11-30T20:56:51.383Z,13.20
2022-11-30T20:59:26.620Z,12.85
2022-11-30T21:01:56.163Z,13.15
2022-11-30T21:04:26.328Z,11.38
2022-11-30T21:06:59.015Z,11.98
2022-11-30T21:09:26.875Z,13.00
2022-11-30T21:11:54.821Z,11.65
2022-11-30T21:14:22.615Z,11.15
2022-11-30T21:16:50.635Z,11.35
2022-11-30T21:19:18.625Z,11.13
2022-11-30T21:21:49.181Z,10.63
2022-11-30T21:24:16.912Z,9.98
2022-11-30T21:26:44.868Z,11.05
2022-11-30T21:29:18.112Z,10.40
2022-11-30T21:31:46.417Z,10.35
2022-11-30T21:34:14.616Z,9.63
2022-11-30T21:36:42.833Z,10.43
2022-11-30T21:39:16.403Z,11.48
2022-11-30T21:41:44.619Z,11.18
2022-11-30T21:44:16.199Z,10.65
2022-11-30T21:46:48.157Z,10.48
2022-11-30T21:49:16.780Z,10.40
2022-11-30T21:51:44.678Z,9.73
2022-11-30T21:54:13.368Z,10.38
2022-11-30T21:56:42.771Z,10.82
2022-11-30T21:59:14.647Z,10.18
2022-11-30T22:01:45.682Z,11.27
2022-11-30T22:04:16.460Z,11.00
2022-11-30T22:06:45.038Z,10.43
2022-11-30T22:09:16.007Z,9.93
2022-11-30T22:11:47.393Z,8.48
2022-11-30T22:14:16.923Z,8.45
2022-11-30T22:16:48.453Z,8.65
2022-11-30T22:19:17.377Z,9.25
2022-11-30T22:21:50.085Z,8.88
2022-11-30T22:24:18.731Z,7.97
2022-11-30T22:26:49.096Z,7.72
2022-11-30T22:29:22.883Z,7.70
2022-11-30T22:31:52.887Z,8.17
2022-11-30T22:34:21.640Z,6.88
2022-11-30T22:36:52.133Z,7.82
2022-11-30T22:39:22.881Z,7.93
2022-11-30T22:41:55.655Z,7.32
2022-11-30T22:44:26.544Z,7.65
2022-11-30T22:46:54.662Z,7.28
2022-11-30T22:49:24.239Z,7.05
2022-11-30T22:51:52.684Z,6.72
2022-11-30T22:54:20.460Z,6.20
2022-11-30T22:56:51.003Z,6.70
2022-11-30T22:59:19.198Z,7.50
2022-11-30T23:01:49.706Z,6.88
2022-11-30T23:04:20.364Z,7.15
2022-11-30T23:06:53.648Z,7.15
2022-11-30T23:09:23.181Z,7.57
2022-11-30T23:11:54.981Z,7.10
2022-11-30T23:14:23.060Z,7.22
2022-11-30T23:16:51.148Z,6.47
2022-11-30T23:19:19.397Z,6.18
2022-11-30T23:21:47.565Z,6.57
2022-11-30T23:24:20.362Z,6.47
2022-11-30T23:26:48.872Z,6.15
2022-11-30T23:29:18.188Z,6.10
2022-11-30T23:31:47.738Z,5.88
2022-11-30T23:34:20.070Z,6.25
2022-11-30T23:36:58.013Z,6.25
2022-11-30T23:39:25.754Z,6.72
2022-11-30T23:41:53.709Z,7.32
2022-11-30T23:44:24.611Z,8.05
2022-11-30T23:46:56.405Z,8.98
2022-11-30T23:49:24.521Z,8.52
2022-11-30T23:51:55.765Z,8.43
2022-11-30T23:54:23.405Z,7.40
2022-11-30T23:56:51.015Z,7.32
2022-11-30T23:59:18.864Z,7.25
